sensor_id;sensor_type;location;lat;lon;timestamp;pressure;altitude;pressure_sealevel;temperature;humidity
70343;BME280;57767;42.068;24.752;2022-07-09T00:00:26;98589.66;;;20.10;75.86
70343;BME280;57767;42.068;24.752;2022-07-09T00:01:28;98590.72;;;20.14;76.00
70343;BME280;57767;42.068;24.752;2022-07-09T00:02:30;98593.41;;;20.14;75.61
70343;BME280;57767;42.068;24.752;2022-07-09T00:03:32;98590.72;;;20.14;75.13
70343;BME280;57767;42.068;24.752;2022-07-09T00:04:34;98584.84;;;20.12;74.65
70343;BME280;57767;42.068;24.752;2022-07-09T00:05:36;98585.06;;;20.15;74.60
70343;BME280;57767;42.068;24.752;2022-07-09T00:06:38;98586.13;;;20.14;74.82
70343;BME280;57767;42.068;24.752;2022-07-09T00:07:40;98582.69;;;20.14;74.82
70343;BME280;57767;42.068;24.752;2022-07-09T00:08:42;98580.75;;;20.19;74.81
70343;BME280;57767;42.068;24.752;2022-07-09T00:09:44;98580.75;;;20.19;74.84
70343;BME280;57767;42.068;24.752;2022-07-09T00:10:46;98571.13;;;20.18;74.64
70343;BME280;57767;42.068;24.752;2022-07-09T00:11:47;98557.75;;;20.13;74.38
70343;BME280;57767;42.068;24.752;2022-07-09T00:12:49;98567.91;;;20.16;73.68
70343;BME280;57767;42.068;24.752;2022-07-09T00:13:51;98567.91;;;20.16;73.45
70343;BME280;57767;42.068;24.752;2022-07-09T00:14:53;98556.97;;;20.08;73.40
70343;BME280;57767;42.068;24.752;2022-07-09T00:15:54;98559.84;;;20.16;73.25
70343;BME280;57767;42.068;24.752;2022-07-09T00:16:56;98560.66;;;20.17;73.43
70343;BME280;57767;42.068;24.752;2022-07-09T00:17:58;98562.25;;;20.18;73.91
70343;BME280;57767;42.068;24.752;2022-07-09T00:19:00;98557.97;;;20.17;73.74
70343;BME280;57767;42.068;24.752;2022-07-09T00:20:03;98556.91;;;20.18;73.71
70343;BME280;57767;42.068;24.752;2022-07-09T00:21:06;98558.22;;;20.20;73.54
70343;BME280;57767;42.068;24.752;2022-07-09T00:22:08;98555.56;;;20.20;73.97
70343;BME280;57767;42.068;24.752;2022-07-09T00:23:10;98552.88;;;20.20;74.22
70343;BME280;57767;42.068;24.752;2022-07-09T00:24:12;98555.00;;;20.23;73.77
70343;BME280;57767;42.068;24.752;2022-07-09T00:25:13;98554.22;;;20.23;72.56
70343;BME280;57767;42.068;24.752;2022-07-09T00:26:15;98545.09;;;20.19;72.29
70343;BME280;57767;42.068;24.752;2022-07-09T00:27:17;98546.44;;;20.21;72.21
70343;BME280;57767;42.068;24.752;2022-07-09T00:28:19;98548.31;;;20.21;72.44
70343;BME280;57767;42.068;24.752;2022-07-09T00:29:20;98544.31;;;20.18;72.16
70343;BME280;57767;42.068;24.752;2022-07-09T00:30:22;98543.78;;;20.16;72.10
70343;BME280;57767;42.068;24.752;2022-07-09T00:31:24;98536.31;;;20.13;72.35
70343;BME280;57767;42.068;24.752;2022-07-09T00:32:26;98548.06;;;20.17;72.14
70343;BME280;57767;42.068;24.752;2022-07-09T00:33:27;98551.81;;;20.16;72.19
70343;BME280;57767;42.068;24.752;2022-07-09T00:34:29;98546.97;;;20.18;72.37
70343;BME280;57767;42.068;24.752;2022-07-09T00:35:31;98553.94;;;20.19;72.69
70343;BME280;57767;42.068;24.752;2022-07-09T00:36:33;98550.19;;;20.20;72.50
70343;BME280;57767;42.068;24.752;2022-07-09T00:37:34;98556.88;;;20.23;72.29
70343;BME280;57767;42.068;24.752;2022-07-09T00:38:36;98548.59;;;20.19;71.98
70343;BME280;57767;42.068;24.752;2022-07-09T00:39:38;98557.97;;;20.22;71.94
70343;BME280;57767;42.068;24.752;2022-07-09T00:40:40;98547.53;;;20.15;72.40
70343;BME280;57767;42.068;24.752;2022-07-09T00:41:42;98561.72;;;20.21;72.11
70343;BME280;57767;42.068;24.752;2022-07-09T00:42:44;98559.31;;;20.19;72.51
70343;BME280;57767;42.068;24.752;2022-07-09T00:43:49;98558.25;;;20.15;73.06
70343;BME280;57767;42.068;24.752;2022-07-09T00:44:51;98564.66;;;20.19;73.33
70343;BME280;57767;42.068;24.752;2022-07-09T00:45:53;98565.47;;;20.20;73.86
70343;BME280;57767;42.068;24.752;2022-07-09T00:46:55;98561.44;;;20.22;73.32
70343;BME280;57767;42.068;24.752;2022-07-09T00:47:58;98563.59;;;20.25;72.90
70343;BME280;57767;42.068;24.752;2022-07-09T00:48:59;98560.59;;;20.27;72.74
70343;BME280;57767;42.068;24.752;2022-07-09T00:50:05;98545.56;;;20.31;73.13
70343;BME280;57767;42.068;24.752;2022-07-09T00:51:08;98549.03;;;20.31;72.47
70343;BME280;57767;42.068;24.752;2022-07-09T00:52:13;98547.16;;;20.32;72.33
70343;BME280;57767;42.068;24.752;2022-07-09T00:53:17;98530.06;;;20.23;72.27
70343;BME280;57767;42.068;24.752;2022-07-09T00:54:23;98533.03;;;20.21;72.03
70343;BME280;57767;42.068;24.752;2022-07-09T00:55:25;98548.84;;;20.23;72.76
70343;BME280;57767;42.068;24.752;2022-07-09T00:56:28;98538.41;;;20.16;72.13
70343;BME280;57767;42.068;24.752;2022-07-09T00:57:31;98544.03;;;20.20;71.91
70343;BME280;57767;42.068;24.752;2022-07-09T00:58:35;98548.06;;;20.17;72.32
70343;BME280;57767;42.068;24.752;2022-07-09T00:59:38;98548.59;;;20.14;72.10
70343;BME280;57767;42.068;24.752;2022-07-09T01:00:40;98543.84;;;20.06;72.72
70343;BME280;57767;42.068;24.752;2022-07-09T01:01:42;98544.13;;;20.04;72.25
70343;BME280;57767;42.068;24.752;2022-07-09T01:02:45;98542.25;;;20.05;72.40
70343;BME280;57767;42.068;24.752;2022-07-09T01:03:48;98525.66;;;19.98;72.23
70343;BME280;57767;42.068;24.752;2022-07-09T01:04:50;98538.28;;;19.97;72.24
70343;BME280;57767;42.068;24.752;2022-07-09T01:05:52;98528.38;;;19.93;72.06
70343;BME280;57767;42.068;24.752;2022-07-09T01:06:54;98531.06;;;19.93;73.29
70343;BME280;57767;42.068;24.752;2022-07-09T01:07:55;98529.16;;;19.93;73.23
70343;BME280;57767;42.068;24.752;2022-07-09T01:08:57;98521.94;;;19.94;73.06
70343;BME280;57767;42.068;24.752;2022-07-09T01:09:59;98523.06;;;19.88;72.49
70343;BME280;57767;42.068;24.752;2022-07-09T01:11:01;98509.69;;;19.78;72.62
70343;BME280;57767;42.068;24.752;2022-07-09T01:12:03;98519.56;;;19.87;73.19
70343;BME280;57767;42.068;24.752;2022-07-09T01:13:05;98514.78;;;19.79;73.07
70343;BME280;57767;42.068;24.752;2022-07-09T01:14:07;98532.16;;;19.87;72.90
70343;BME280;57767;42.068;24.752;2022-07-09T01:15:09;98527.09;;;19.85;72.96
70343;BME280;57767;42.068;24.752;2022-07-09T01:16:12;98529.50;;;19.87;72.82
70343;BME280;57767;42.068;24.752;2022-07-09T01:17:15;98527.31;;;19.89;72.72
70343;BME280;57767;42.068;24.752;2022-07-09T01:18:18;98531.91;;;19.88;72.57
70343;BME280;57767;42.068;24.752;2022-07-09T01:19:21;98529.50;;;19.87;72.63
70343;BME280;57767;42.068;24.752;2022-07-09T01:20:23;98531.38;;;19.86;72.61
70343;BME280;57767;42.068;24.752;2022-07-09T01:21:25;98515.84;;;19.78;72.80
70343;BME280;57767;42.068;24.752;2022-07-09T01:22:27;98535.38;;;19.84;72.58
70343;BME280;57767;42.068;24.752;2022-07-09T01:23:28;98539.16;;;19.83;72.56
70343;BME280;57767;42.068;24.752;2022-07-09T01:24:30;98526.81;;;19.82;72.58
70343;BME280;57767;42.068;24.752;2022-07-09T01:25:41;98532.72;;;19.79;72.37
70343;BME280;57767;42.068;24.752;2022-07-09T01:26:45;98542.91;;;19.82;72.72
70343;BME280;57767;42.068;24.752;2022-07-09T01:27:47;98544.50;;;19.83;72.68
70343;BME280;57767;42.068;24.752;2022-07-09T01:28:49;98537.81;;;19.85;72.41
70343;BME280;57767;42.068;24.752;2022-07-09T01:29:50;98544.50;;;19.88;72.17
70343;BME280;57767;42.068;24.752;2022-07-09T01:30:52;98532.16;;;19.87;72.57
70343;BME280;57767;42.068;24.752;2022-07-09T01:31:54;98524.69;;;19.84;72.22
70343;BME280;57767;42.068;24.752;2022-07-09T01:32:56;98525.22;;;19.81;72.24
70343;BME280;57767;42.068;24.752;2022-07-09T01:33:58;98540.69;;;19.94;72.05
70343;BME280;57767;42.068;24.752;2022-07-09T01:34:59;98540.69;;;19.94;72.20
70343;BME280;57767;42.068;24.752;2022-07-09T01:36:01;98527.31;;;19.89;71.98
70343;BME280;57767;42.068;24.752;2022-07-09T01:37:03;98545.75;;;20.00;71.86
70343;BME280;57767;42.068;24.752;2022-07-09T01:38:05;98542.78;;;20.02;71.83
70343;BME280;57767;42.068;24.752;2022-07-09T01:39:07;98541.44;;;20.04;72.00
70343;BME280;57767;42.068;24.752;2022-07-09T01:40:09;98514.22;;;19.87;71.94
70343;BME280;57767;42.068;24.752;2022-07-09T01:41:11;98545.72;;;20.06;71.72
70343;BME280;57767;42.068;24.752;2022-07-09T01:42:13;98548.41;;;20.06;71.03
70343;BME280;57767;42.068;24.752;2022-07-09T01:43:14;98545.97;;;20.09;71.21
70343;BME280;57767;42.068;24.752;2022-07-09T01:44:16;98541.16;;;20.11;71.17
70343;BME280;57767;42.068;24.752;2022-07-09T01:45:18;98548.91;;;20.13;71.86
70343;BME280;57767;42.068;24.752;2022-07-09T01:46:20;98548.09;;;20.12;71.78
70343;BME280;57767;42.068;24.752;2022-07-09T01:47:21;98550.81;;;20.07;72.14
70343;BME280;57767;42.068;24.752;2022-07-09T01:48:23;98548.66;;;20.09;71.63
70343;BME280;57767;42.068;24.752;2022-07-09T01:49:25;98554.84;;;20.04;72.23
70343;BME280;57767;42.068;24.752;2022-07-09T01:50:27;98558.84;;;20.07;71.13
70343;BME280;57767;42.068;24.752;2022-07-09T01:51:28;98542.28;;;20.00;71.71
70343;BME280;57767;42.068;24.752;2022-07-09T01:52:30;98559.91;;;20.06;72.37
70343;BME280;57767;42.068;24.752;2022-07-09T01:53:32;98554.59;;;20.01;73.28
70343;BME280;57767;42.068;24.752;2022-07-09T01:54:35;98558.06;;;20.01;73.69
70343;BME280;57767;42.068;24.752;2022-07-09T01:55:37;98557.50;;;20.04;73.78
70343;BME280;57767;42.068;24.752;2022-07-09T01:56:38;98556.16;;;20.07;73.75
70343;BME280;57767;42.068;24.752;2022-07-09T01:57:40;98560.97;;;20.10;73.33
70343;BME280;57767;42.068;24.752;2022-07-09T01:58:42;98550.25;;;20.10;73.34
70343;BME280;57767;42.068;24.752;2022-07-09T01:59:45;98564.41;;;20.16;73.28
70343;BME280;57767;42.068;24.752;2022-07-09T02:00:47;98561.50;;;20.12;73.01
70343;BME280;57767;42.068;24.752;2022-07-09T02:01:49;98561.81;;;20.06;73.07
70343;BME280;57767;42.068;24.752;2022-07-09T02:02:51;98562.34;;;20.08;73.19
70343;BME280;57767;42.068;24.752;2022-07-09T02:03:52;98565.00;;;20.08;73.16
70343;BME280;57767;42.068;24.752;2022-07-09T02:04:54;98560.19;;;20.10;73.65
70343;BME280;57767;42.068;24.752;2022-07-09T02:05:56;98559.09;;;20.11;73.57
70343;BME280;57767;42.068;24.752;2022-07-09T02:06:58;98560.97;;;20.10;73.86
70343;BME280;57767;42.068;24.752;2022-07-09T02:08:00;98564.75;;;20.09;73.26
70343;BME280;57767;42.068;24.752;2022-07-09T02:09:02;98561.00;;;20.05;73.14
70343;BME280;57767;42.068;24.752;2022-07-09T02:10:04;98558.84;;;20.07;73.28
70343;BME280;57767;42.068;24.752;2022-07-09T02:11:06;98545.47;;;20.02;73.24
70343;BME280;57767;42.068;24.752;2022-07-09T02:12:08;98554.28;;;20.13;73.30
70343;BME280;57767;42.068;24.752;2022-07-09T02:13:10;98552.66;;;20.12;73.70
70343;BME280;57767;42.068;24.752;2022-07-09T02:14:12;98547.53;;;20.15;74.24
70343;BME280;57767;42.068;24.752;2022-07-09T02:15:13;98552.63;;;20.17;74.61
70343;BME280;57767;42.068;24.752;2022-07-09T02:16:15;98541.16;;;20.11;74.68
70343;BME280;57767;42.068;24.752;2022-07-09T02:17:17;98550.00;;;20.12;74.66
70343;BME280;57767;42.068;24.752;2022-07-09T02:18:19;98546.44;;;20.16;74.77
70343;BME280;57767;42.068;24.752;2022-07-09T02:19:20;98546.44;;;20.21;74.43
70343;BME280;57767;42.068;24.752;2022-07-09T02:20:22;98547.50;;;20.25;74.18
70343;BME280;57767;42.068;24.752;2022-07-09T02:21:24;98545.03;;;20.29;73.85
70343;BME280;57767;42.068;24.752;2022-07-09T02:22:26;98536.44;;;20.32;73.49
70343;BME280;57767;42.068;24.752;2022-07-09T02:23:28;98545.81;;;20.34;72.98
70343;BME280;57767;42.068;24.752;2022-07-09T02:24:30;98536.72;;;20.35;72.34
70343;BME280;57767;42.068;24.752;2022-07-09T02:25:32;98533.47;;;20.33;71.90
70343;BME280;57767;42.068;24.752;2022-07-09T02:26:34;98541.53;;;20.38;71.44
70343;BME280;57767;42.068;24.752;2022-07-09T02:27:35;98544.72;;;20.41;71.30
70343;BME280;57767;42.068;24.752;2022-07-09T02:28:37;98540.97;;;20.42;70.34
70343;BME280;57767;42.068;24.752;2022-07-09T02:29:39;98537.75;;;20.39;70.69
70343;BME280;57767;42.068;24.752;2022-07-09T02:30:41;98539.34;;;20.41;70.27
70343;BME280;57767;42.068;24.752;2022-07-09T02:31:42;98538.84;;;20.38;69.63
70343;BME280;57767;42.068;24.752;2022-07-09T02:32:44;98535.09;;;20.34;69.89
70343;BME280;57767;42.068;24.752;2022-07-09T02:33:46;98543.69;;;20.36;70.25
70343;BME280;57767;42.068;24.752;2022-07-09T02:34:48;98537.25;;;20.37;69.35
70343;BME280;57767;42.068;24.752;2022-07-09T02:35:50;98541.53;;;20.33;69.09
70343;BME280;57767;42.068;24.752;2022-07-09T02:36:52;98543.69;;;20.31;69.18
70343;BME280;57767;42.068;24.752;2022-07-09T02:37:53;98534.56;;;20.32;69.42
70343;BME280;57767;42.068;24.752;2022-07-09T02:38:55;98541.00;;;20.31;69.51
70343;BME280;57767;42.068;24.752;2022-07-09T02:39:57;98536.19;;;20.28;69.52
70343;BME280;57767;42.068;24.752;2022-07-09T02:40:59;98536.19;;;20.28;69.10
70343;BME280;57767;42.068;24.752;2022-07-09T02:42:03;98534.59;;;20.27;68.80
70343;BME280;57767;42.068;24.752;2022-07-09T02:43:04;98537.56;;;20.26;68.61
70343;BME280;57767;42.068;24.752;2022-07-09T02:44:06;98529.28;;;20.22;69.02
70343;BME280;57767;42.068;24.752;2022-07-09T02:45:08;98526.13;;;20.10;68.59
70343;BME280;57767;42.068;24.752;2022-07-09T02:46:10;98534.66;;;20.17;68.72
70343;BME280;57767;42.068;24.752;2022-07-09T02:47:12;98546.19;;;20.18;68.85
70343;BME280;57767;42.068;24.752;2022-07-09T02:48:14;98542.97;;;20.16;69.25
70343;BME280;57767;42.068;24.752;2022-07-09T02:49:16;98543.56;;;20.13;68.34
70343;BME280;57767;42.068;24.752;2022-07-09T02:50:18;98529.91;;;20.04;68.83
70343;BME280;57767;42.068;24.752;2022-07-09T02:51:20;98537.94;;;20.09;68.11
70343;BME280;57767;42.068;24.752;2022-07-09T02:52:21;98540.63;;;20.09;68.69
70343;BME280;57767;42.068;24.752;2022-07-09T02:53:23;98540.09;;;20.07;69.25
70343;BME280;57767;42.068;24.752;2022-07-09T02:54:25;98537.69;;;20.06;69.22
70343;BME280;57767;42.068;24.752;2022-07-09T02:55:27;98519.25;;;19.94;68.72
70343;BME280;57767;42.068;24.752;2022-07-09T02:56:29;98534.47;;;20.03;68.40
70343;BME280;57767;42.068;24.752;2022-07-09T02:57:31;98528.88;;;20.00;69.12
70343;BME280;57767;42.068;24.752;2022-07-09T02:58:32;98517.91;;;19.96;68.91
70343;BME280;57767;42.068;24.752;2022-07-09T02:59:34;98541.97;;;20.07;69.00
70343;BME280;57767;42.068;24.752;2022-07-09T03:00:37;98533.41;;;20.04;68.71
70343;BME280;57767;42.068;24.752;2022-07-09T03:01:42;98531.25;;;20.01;68.58
70343;BME280;57767;42.068;24.752;2022-07-09T03:02:44;98523.22;;;20.01;68.45
70343;BME280;57767;42.068;24.752;2022-07-09T03:03:46;98517.09;;;19.96;68.60
70343;BME280;57767;42.068;24.752;2022-07-09T03:04:47;98525.91;;;20.01;68.08
70343;BME280;57767;42.068;24.752;2022-07-09T03:05:49;98526.47;;;19.98;67.94
70343;BME280;57767;42.068;24.752;2022-07-09T03:06:51;98526.69;;;20.02;67.92
70343;BME280;57767;42.068;24.752;2022-07-09T03:07:53;98518.19;;;19.95;68.89
70343;BME280;57767;42.068;24.752;2022-07-09T03:08:55;98526.97;;;20.06;68.88
70343;BME280;57767;42.068;24.752;2022-07-09T03:09:57;98521.84;;;20.09;69.02
70343;BME280;57767;42.068;24.752;2022-07-09T03:10:59;98519.44;;;20.08;68.68
70343;BME280;57767;42.068;24.752;2022-07-09T03:12:01;98509.00;;;20.06;68.03
70343;BME280;57767;42.068;24.752;2022-07-09T03:13:02;98516.44;;;20.14;67.63
70343;BME280;57767;42.068;24.752;2022-07-09T03:14:10;98513.00;;;20.09;67.45
70343;BME280;57767;42.068;24.752;2022-07-09T03:15:12;98521.78;;;20.19;68.23
70343;BME280;57767;42.068;24.752;2022-07-09T03:16:16;98522.59;;;20.20;68.29
70343;BME280;57767;42.068;24.752;2022-07-09T03:17:17;98519.09;;;20.19;67.93
70343;BME280;57767;42.068;24.752;2022-07-09T03:18:19;98519.63;;;20.21;68.53
70343;BME280;57767;42.068;24.752;2022-07-09T03:19:21;98519.09;;;20.24;68.02
70343;BME280;57767;42.068;24.752;2022-07-09T03:20:23;98515.81;;;20.27;68.02
70343;BME280;57767;42.068;24.752;2022-07-09T03:21:25;98508.81;;;20.31;67.64
70343;BME280;57767;42.068;24.752;2022-07-09T03:22:26;98503.53;;;20.26;67.11
70343;BME280;57767;42.068;24.752;2022-07-09T03:23:28;98505.59;;;20.34;67.53
70343;BME280;57767;42.068;24.752;2022-07-09T03:24:30;98511.97;;;20.44;67.03
70343;BME280;57767;42.068;24.752;2022-07-09T03:25:32;98516.53;;;20.48;66.59
70343;BME280;57767;42.068;24.752;2022-07-09T03:26:34;98516.78;;;20.52;66.99
70343;BME280;57767;42.068;24.752;2022-07-09T03:27:36;98507.59;;;20.58;67.35
70343;BME280;57767;42.068;24.752;2022-07-09T03:28:38;98514.00;;;20.62;67.17
70343;BME280;57767;42.068;24.752;2022-07-09T03:29:39;98512.34;;;20.66;67.10
70343;BME280;57767;42.068;24.752;2022-07-09T03:30:41;98509.63;;;20.71;67.31
70343;BME280;57767;42.068;24.752;2022-07-09T03:31:43;98522.41;;;20.79;67.35
70343;BME280;57767;42.068;24.752;2022-07-09T03:32:45;98514.31;;;20.84;67.32
70343;BME280;57767;42.068;24.752;2022-07-09T03:33:47;98518.28;;;20.92;67.43
70343;BME280;57767;42.068;24.752;2022-07-09T03:34:55;98523.31;;;20.98;67.40
70343;BME280;57767;42.068;24.752;2022-07-09T03:35:57;98500.28;;;20.92;67.31
70343;BME280;57767;42.068;24.752;2022-07-09T03:36:59;98523.66;;;21.16;66.69
70343;BME280;57767;42.068;24.752;2022-07-09T03:38:01;98510.75;;;21.23;65.10
70343;BME280;57767;42.068;24.752;2022-07-09T03:39:03;98510.63;;;21.33;64.94
70343;BME280;57767;42.068;24.752;2022-07-09T03:40:05;98519.38;;;21.43;65.45
70343;BME280;57767;42.068;24.752;2022-07-09T03:41:07;98514.97;;;21.53;64.60
70343;BME280;57767;42.068;24.752;2022-07-09T03:42:09;98514.34;;;21.61;64.80
70343;BME280;57767;42.068;24.752;2022-07-09T03:43:11;98502.28;;;21.58;64.14
70343;BME280;57767;42.068;24.752;2022-07-09T03:44:13;98518.22;;;21.73;64.10
70343;BME280;57767;42.068;24.752;2022-07-09T03:45:15;98514.06;;;21.81;64.18
70343;BME280;57767;42.068;24.752;2022-07-09T03:46:16;98526.06;;;21.89;63.84
70343;BME280;57767;42.068;24.752;2022-07-09T03:47:19;98522.22;;;21.95;63.06
70343;BME280;57767;42.068;24.752;2022-07-09T03:48:20;98524.63;;;21.96;62.85
70343;BME280;57767;42.068;24.752;2022-07-09T03:49:22;98531.34;;;21.99;62.74
70343;BME280;57767;42.068;24.752;2022-07-09T03:50:24;98531.56;;;22.02;61.87
70343;BME280;57767;42.068;24.752;2022-07-09T03:51:29;98524.78;;;22.05;62.09
70343;BME280;57767;42.068;24.752;2022-07-09T03:52:30;98524.00;;;22.04;61.96
70343;BME280;57767;42.068;24.752;2022-07-09T03:53:32;98527.41;;;22.10;61.72
70343;BME280;57767;42.068;24.752;2022-07-09T03:54:34;98531.19;;;22.09;61.17
70343;BME280;57767;42.068;24.752;2022-07-09T03:55:36;98526.84;;;22.13;61.51
70343;BME280;57767;42.068;24.752;2022-07-09T03:56:38;98531.72;;;22.11;61.15
70343;BME280;57767;42.068;24.752;2022-07-09T03:57:40;98529.03;;;22.11;61.15
70343;BME280;57767;42.068;24.752;2022-07-09T03:58:42;98527.00;;;22.03;61.32
70343;BME280;57767;42.068;24.752;2022-07-09T03:59:45;98536.16;;;22.02;61.51
70343;BME280;57767;42.068;24.752;2022-07-09T04:00:46;98533.47;;;22.02;61.18
70343;BME280;57767;42.068;24.752;2022-07-09T04:01:48;98533.16;;;22.03;62.07
70343;BME280;57767;42.068;24.752;2022-07-09T04:02:50;98538.22;;;22.05;63.00
70343;BME280;57767;42.068;24.752;2022-07-09T04:03:52;98537.94;;;22.06;61.67
70343;BME280;57767;42.068;24.752;2022-07-09T04:04:54;98535.47;;;22.10;61.81
70343;BME280;57767;42.068;24.752;2022-07-09T04:05:58;98528.78;;;22.07;61.29
70343;BME280;57767;42.068;24.752;2022-07-09T04:06:59;98535.44;;;22.15;61.33
70343;BME280;57767;42.068;24.752;2022-07-09T04:08:01;98540.81;;;22.15;61.13
70343;BME280;57767;42.068;24.752;2022-07-09T04:09:03;98539.72;;;22.16;60.84
70343;BME280;57767;42.068;24.752;2022-07-09T04:10:06;98537.78;;;22.16;60.96
70343;BME280;57767;42.068;24.752;2022-07-09T04:11:08;98540.56;;;22.11;60.97
70343;BME280;57767;42.068;24.752;2022-07-09T04:12:10;98537.59;;;22.13;61.06
70343;BME280;57767;42.068;24.752;2022-07-09T04:13:11;98533.59;;;22.10;61.46
70343;BME280;57767;42.068;24.752;2022-07-09T04:14:15;98539.25;;;22.09;61.32
70343;BME280;57767;42.068;24.752;2022-07-09T04:15:17;98539.53;;;22.07;60.58
70343;BME280;57767;42.068;24.752;2022-07-09T04:16:19;98537.13;;;22.06;61.25
70343;BME280;57767;42.068;24.752;2022-07-09T04:17:20;98539.13;;;22.00;61.12
70343;BME280;57767;42.068;24.752;2022-07-09T04:18:22;98545.00;;;22.02;61.61
70343;BME280;57767;42.068;24.752;2022-07-09T04:19:24;98542.91;;;21.99;62.09
70343;BME280;57767;42.068;24.752;2022-07-09T04:20:26;98549.06;;;22.00;62.06
70343;BME280;57767;42.068;24.752;2022-07-09T04:21:28;98532.44;;;21.93;61.82
70343;BME280;57767;42.068;24.752;2022-07-09T04:22:29;98544.22;;;21.97;62.37
70343;BME280;57767;42.068;24.752;2022-07-09T04:23:32;98538.56;;;21.98;62.14
70343;BME280;57767;42.068;24.752;2022-07-09T04:24:34;98541.25;;;21.98;62.12
70343;BME280;57767;42.068;24.752;2022-07-09T04:25:36;98545.03;;;21.97;61.82
70343;BME280;57767;42.068;24.752;2022-07-09T04:26:37;98539.16;;;21.95;61.96
70343;BME280;57767;42.068;24.752;2022-07-09T04:27:39;98541.84;;;21.95;61.67
70343;BME280;57767;42.068;24.752;2022-07-09T04:28:41;98542.91;;;21.94;61.44
70343;BME280;57767;42.068;24.752;2022-07-09T04:29:42;98551.78;;;21.95;61.60
70343;BME280;57767;42.068;24.752;2022-07-09T04:30:47;98509.63;;;21.71;62.08
70343;BME280;57767;42.068;24.752;2022-07-09T04:31:49;98542.63;;;21.96;61.92
70343;BME280;57767;42.068;24.752;2022-07-09T04:32:51;98545.84;;;21.98;62.99
70343;BME280;57767;42.068;24.752;2022-07-09T04:33:53;98544.50;;;22.00;62.71
70343;BME280;57767;42.068;24.752;2022-07-09T04:34:54;98548.53;;;21.98;62.16
70343;BME280;57767;42.068;24.752;2022-07-09T04:35:57;98537.25;;;21.96;62.08
70343;BME280;57767;42.068;24.752;2022-07-09T04:36:59;98552.00;;;22.03;62.19
70343;BME280;57767;42.068;24.752;2022-07-09T04:38:01;98540.91;;;22.05;62.38
70343;BME280;57767;42.068;24.752;2022-07-09T04:39:03;98538.84;;;22.02;62.03
70343;BME280;57767;42.068;24.752;2022-07-09T04:40:05;98543.59;;;22.05;61.80
70343;BME280;57767;42.068;24.752;2022-07-09T04:41:07;98532.66;;;22.01;62.39
70343;BME280;57767;42.068;24.752;2022-07-09T04:42:09;98543.84;;;22.08;62.25
70343;BME280;57767;42.068;24.752;2022-07-09T04:43:14;98542.53;;;22.06;61.68
70343;BME280;57767;42.068;24.752;2022-07-09T04:44:16;98544.41;;;22.05;61.61
70343;BME280;57767;42.068;24.752;2022-07-09T04:45:18;98541.00;;;22.00;60.86
70343;BME280;57767;42.068;24.752;2022-07-09T04:46:20;98527.44;;;21.86;61.11
70343;BME280;57767;42.068;24.752;2022-07-09T04:47:26;98547.78;;;21.92;61.72
70343;BME280;57767;42.068;24.752;2022-07-09T04:48:28;98542.72;;;21.91;61.76
70343;BME280;57767;42.068;24.752;2022-07-09T04:49:30;98547.78;;;21.92;61.67
70343;BME280;57767;42.068;24.752;2022-07-09T04:50:38;98546.19;;;21.91;61.39
70343;BME280;57767;42.068;24.752;2022-07-09T04:51:40;98540.59;;;21.88;61.47
70343;BME280;57767;42.068;24.752;2022-07-09T04:52:42;98536.94;;;21.78;61.12
70343;BME280;57767;42.068;24.752;2022-07-09T04:53:44;98553.25;;;21.87;61.40
70343;BME280;57767;42.068;24.752;2022-07-09T04:54:46;98548.94;;;21.86;60.97
70343;BME280;57767;42.068;24.752;2022-07-09T04:55:48;98540.88;;;21.86;61.04
70343;BME280;57767;42.068;24.752;2022-07-09T04:56:50;98554.31;;;21.86;61.62
70343;BME280;57767;42.068;24.752;2022-07-09T04:57:52;98552.44;;;21.87;61.55
70343;BME280;57767;42.068;24.752;2022-07-09T04:58:54;98546.81;;;21.83;61.55
70343;BME280;57767;42.068;24.752;2022-07-09T04:59:59;98552.16;;;21.88;61.73
70343;BME280;57767;42.068;24.752;2022-07-09T05:01:01;98552.94;;;21.89;61.49
70343;BME280;57767;42.068;24.752;2022-07-09T05:02:03;98548.19;;;21.80;61.08
70343;BME280;57767;42.068;24.752;2022-07-09T05:03:05;98545.00;;;21.78;61.79
70343;BME280;57767;42.068;24.752;2022-07-09T05:04:07;98556.25;;;21.80;61.18
70343;BME280;57767;42.068;24.752;2022-07-09T05:05:09;98550.59;;;21.82;61.73
70343;BME280;57767;42.068;24.752;2022-07-09T05:06:10;98552.44;;;21.87;61.46
70343;BME280;57767;42.068;24.752;2022-07-09T05:07:12;98528.16;;;21.73;61.93
70343;BME280;57767;42.068;24.752;2022-07-09T05:08:14;98551.56;;;21.91;61.54
70343;BME280;57767;42.068;24.752;2022-07-09T05:09:16;98551.78;;;21.95;61.15
70343;BME280;57767;42.068;24.752;2022-07-09T05:10:18;98548.53;;;21.98;61.05
70343;BME280;57767;42.068;24.752;2022-07-09T05:11:20;98548.50;;;22.03;61.02
70343;BME280;57767;42.068;24.752;2022-07-09T05:12:22;98543.59;;;22.05;60.74
70343;BME280;57767;42.068;24.752;2022-07-09T05:13:24;98548.41;;;22.08;60.76
70343;BME280;57767;42.068;24.752;2022-07-09T05:14:26;98549.94;;;22.14;60.78
70343;BME280;57767;42.068;24.752;2022-07-09T05:15:27;98548.88;;;22.15;60.27
70343;BME280;57767;42.068;24.752;2022-07-09T05:16:32;98545.56;;;22.18;60.29
70343;BME280;57767;42.068;24.752;2022-07-09T05:17:35;98558.44;;;22.21;60.31
70343;BME280;57767;42.068;24.752;2022-07-09T05:18:37;98551.47;;;22.20;60.76
70343;BME280;57767;42.068;24.752;2022-07-09T05:19:40;98548.72;;;22.25;60.80
70343;BME280;57767;42.068;24.752;2022-07-09T05:20:42;98548.94;;;22.29;60.35
70343;BME280;57767;42.068;24.752;2022-07-09T05:21:44;98551.53;;;22.34;60.54
70343;BME280;57767;42.068;24.752;2022-07-09T05:22:45;98552.84;;;22.36;60.95
70343;BME280;57767;42.068;24.752;2022-07-09T05:23:47;98547.47;;;22.36;59.94
70343;BME280;57767;42.068;24.752;2022-07-09T05:24:49;98551.09;;;22.45;59.49